aviador You're here:

PAVA Decoded Metar

Chevak in AK, USA
Report Time2017-07-24 20:32:00
UTC Time2017-07-24 20:44:52
Flight Rules ifr IFR
Wind260° at 08 kt
W.Decomp.*RWY 20: 5.5 kt HW 5.9 kt RCW
W.Rank260° ranks 20
Current wind is below 260° avg. (9.9)
Visibility9999 m
Phenomena:N/A
Clouds:Overcast 005 Hf
Expected CloudBase > 400 ft AGL from Temp-Dew spread
Ceiling500 ft
Temp11°C (ISA -4)
Dew Point10°C (94% RH)
AAT8.2°C
QNH1015 hPa
Density Alt-289 ft
Elevation75 ft
Report Wrong Elevation
Raw Report
PAVA 242032Z AUTO 26008KT 10SM OVC005 11/10 A2997 RMK AO2=

Extra information for PAVA:More info

Airport Information Weather charts Add Link Nearby Venues Social comments

AIRNAV info for PAVA